sensor_id;sensor_type;location;lat;lon;timestamp;P1;durP1;ratioP1;P2;durP2;ratioP2
52530;SDS011;38441;52.894;6.040;2023-07-29T10:37:51;4.25;;;1.20;;
52530;SDS011;38441;52.894;6.040;2023-07-29T10:40:18;3.60;;;1.08;;
52530;SDS011;38441;52.894;6.040;2023-07-29T10:48:10;6.10;;;1.20;;
52530;SDS011;38441;52.894;6.040;2023-07-29T10:50:37;4.72;;;1.20;;
52530;SDS011;38441;52.894;6.040;2023-07-29T10:53:12;6.18;;;1.20;;
52530;SDS011;38441;52.894;6.040;2023-07-29T10:55:41;3.78;;;1.27;;
52530;SDS011;38441;52.894;6.040;2023-07-29T10:58:12;4.25;;;1.33;;
52530;SDS011;38441;52.894;6.040;2023-07-29T11:00:42;6.38;;;1.40;;
52530;SDS011;38441;52.894;6.040;2023-07-29T11:03:09;6.82;;;1.30;;
52530;SDS011;38441;52.894;6.040;2023-07-29T11:08:36;5.57;;;1.92;;
52530;SDS011;38441;52.894;6.040;2023-07-29T11:11:02;4.80;;;1.70;;
52530;SDS011;38441;52.894;6.040;2023-07-29T11:13:29;6.28;;;1.33;;
52530;SDS011;38441;52.894;6.040;2023-07-29T11:15:55;4.20;;;1.23;;
52530;SDS011;38441;52.894;6.040;2023-07-29T11:18:25;4.50;;;1.52;;
52530;SDS011;38441;52.894;6.040;2023-07-29T11:20:59;4.43;;;1.35;;
52530;SDS011;38441;52.894;6.040;2023-07-29T11:23:29;5.72;;;1.73;;
52530;SDS011;38441;52.894;6.040;2023-07-29T11:25:56;4.53;;;1.58;;
52530;SDS011;38441;52.894;6.040;2023-07-29T11:28:23;6.43;;;1.80;;
52530;SDS011;38441;52.894;6.040;2023-07-29T11:30:50;7.13;;;1.65;;
52530;SDS011;38441;52.894;6.040;2023-07-29T11:33:20;4.60;;;1.73;;
52530;SDS011;38441;52.894;6.040;2023-07-29T11:35:47;5.45;;;1.70;;
52530;SDS011;38441;52.894;6.040;2023-07-29T11:38:16;4.30;;;1.58;;
52530;SDS011;38441;52.894;6.040;2023-07-29T11:40:53;5.50;;;1.70;;
52530;SDS011;38441;52.894;6.040;2023-07-29T11:43:21;4.07;;;1.48;;
52530;SDS011;38441;52.894;6.040;2023-07-29T11:45:47;3.38;;;1.42;;
52530;SDS011;38441;52.894;6.040;2023-07-29T11:48:12;5.65;;;1.52;;
52530;SDS011;38441;52.894;6.040;2023-07-29T11:50:38;4.20;;;1.67;;
52530;SDS011;38441;52.894;6.040;2023-07-29T11:53:03;4.72;;;1.55;;
52530;SDS011;38441;52.894;6.040;2023-07-29T11:55:30;5.97;;;1.73;;
52530;SDS011;38441;52.894;6.040;2023-07-29T11:57:55;4.75;;;1.73;;
52530;SDS011;38441;52.894;6.040;2023-07-29T12:00:22;7.07;;;1.88;;
52530;SDS011;38441;52.894;6.040;2023-07-29T12:02:48;6.80;;;2.25;;
52530;SDS011;38441;52.894;6.040;2023-07-29T12:05:14;4.60;;;1.55;;
52530;SDS011;38441;52.894;6.040;2023-07-29T12:07:42;8.43;;;2.08;;
52530;SDS011;38441;52.894;6.040;2023-07-29T12:10:09;5.20;;;1.65;;
52530;SDS011;38441;52.894;6.040;2023-07-29T12:12:45;6.57;;;1.90;;
52530;SDS011;38441;52.894;6.040;2023-07-29T12:15:12;6.25;;;1.75;;
52530;SDS011;38441;52.894;6.040;2023-07-29T12:17:39;5.18;;;1.70;;
52530;SDS011;38441;52.894;6.040;2023-07-29T12:20:07;5.38;;;1.65;;
52530;SDS011;38441;52.894;6.040;2023-07-29T12:22:34;4.72;;;1.73;;
52530;SDS011;38441;52.894;6.040;2023-07-29T12:25:00;5.93;;;1.50;;
52530;SDS011;38441;52.894;6.040;2023-07-29T12:27:29;4.85;;;1.58;;
52530;SDS011;38441;52.894;6.040;2023-07-29T12:29:56;5.50;;;1.50;;
52530;SDS011;38441;52.894;6.040;2023-07-29T12:32:24;6.68;;;1.60;;
52530;SDS011;38441;52.894;6.040;2023-07-29T12:34:52;3.45;;;1.17;;
52530;SDS011;38441;52.894;6.040;2023-07-29T12:37:18;4.55;;;1.10;;
52530;SDS011;38441;52.894;6.040;2023-07-29T12:39:44;3.22;;;1.20;;
52530;SDS011;38441;52.894;6.040;2023-07-29T12:42:10;4.80;;;1.23;;
52530;SDS011;38441;52.894;6.040;2023-07-29T12:44:36;3.63;;;0.93;;
52530;SDS011;38441;52.894;6.040;2023-07-29T12:47:03;3.67;;;0.88;;
52530;SDS011;38441;52.894;6.040;2023-07-29T12:49:31;2.05;;;0.70;;
52530;SDS011;38441;52.894;6.040;2023-07-29T12:51:57;2.20;;;0.57;;
52530;SDS011;38441;52.894;6.040;2023-07-29T12:54:23;2.35;;;0.50;;
52530;SDS011;38441;52.894;6.040;2023-07-29T12:56:49;5.35;;;0.90;;
52530;SDS011;38441;52.894;6.040;2023-07-29T12:59:15;2.42;;;0.60;;
52530;SDS011;38441;52.894;6.040;2023-07-29T13:01:41;2.08;;;0.80;;
52530;SDS011;38441;52.894;6.040;2023-07-29T13:04:06;1.88;;;0.40;;
52530;SDS011;38441;52.894;6.040;2023-07-29T13:06:32;5.05;;;0.70;;
52530;SDS011;38441;52.894;6.040;2023-07-29T13:08:58;3.80;;;0.70;;
52530;SDS011;38441;52.894;6.040;2023-07-29T13:11:23;3.28;;;0.70;;
52530;SDS011;38441;52.894;6.040;2023-07-29T13:13:49;1.98;;;0.60;;
52530;SDS011;38441;52.894;6.040;2023-07-29T13:16:15;4.63;;;0.90;;
52530;SDS011;38441;52.894;6.040;2023-07-29T13:18:40;2.40;;;0.60;;
52530;SDS011;38441;52.894;6.040;2023-07-29T13:21:08;3.38;;;0.70;;
52530;SDS011;38441;52.894;6.040;2023-07-29T13:23:33;3.70;;;0.60;;
52530;SDS011;38441;52.894;6.040;2023-07-29T13:25:59;6.88;;;1.10;;
52530;SDS011;38441;52.894;6.040;2023-07-29T13:28:24;3.28;;;0.60;;
52530;SDS011;38441;52.894;6.040;2023-07-29T13:30:50;3.60;;;0.80;;
52530;SDS011;38441;52.894;6.040;2023-07-29T13:33:16;3.33;;;0.70;;
52530;SDS011;38441;52.894;6.040;2023-07-29T13:35:41;2.85;;;0.70;;
52530;SDS011;38441;52.894;6.040;2023-07-29T13:38:07;3.22;;;0.80;;
52530;SDS011;38441;52.894;6.040;2023-07-29T13:40:33;3.08;;;0.70;;
52530;SDS011;38441;52.894;6.040;2023-07-29T13:42:59;3.47;;;0.68;;
52530;SDS011;38441;52.894;6.040;2023-07-29T13:45:24;2.35;;;0.47;;
52530;SDS011;38441;52.894;6.040;2023-07-29T13:47:50;3.17;;;0.70;;
52530;SDS011;38441;52.894;6.040;2023-07-29T13:50:19;1.13;;;0.40;;
52530;SDS011;38441;52.894;6.040;2023-07-29T13:52:44;2.08;;;0.68;;
52530;SDS011;38441;52.894;6.040;2023-07-29T13:55:10;1.88;;;0.50;;
52530;SDS011;38441;52.894;6.040;2023-07-29T13:57:36;2.45;;;0.55;;
52530;SDS011;38441;52.894;6.040;2023-07-29T14:00:03;1.80;;;0.30;;
52530;SDS011;38441;52.894;6.040;2023-07-29T14:02:30;2.10;;;0.55;;
52530;SDS011;38441;52.894;6.040;2023-07-29T14:04:56;1.10;;;0.30;;
52530;SDS011;38441;52.894;6.040;2023-07-29T14:07:22;2.35;;;0.40;;
52530;SDS011;38441;52.894;6.040;2023-07-29T14:09:47;2.20;;;0.50;;
52530;SDS011;38441;52.894;6.040;2023-07-29T14:12:13;1.67;;;0.52;;
52530;SDS011;38441;52.894;6.040;2023-07-29T14:14:43;1.35;;;0.45;;
52530;SDS011;38441;52.894;6.040;2023-07-29T14:17:09;2.15;;;0.52;;
52530;SDS011;38441;52.894;6.040;2023-07-29T14:19:35;1.92;;;0.43;;
52530;SDS011;38441;52.894;6.040;2023-07-29T14:22:01;3.17;;;0.40;;
52530;SDS011;38441;52.894;6.040;2023-07-29T14:24:27;1.63;;;0.40;;
52530;SDS011;38441;52.894;6.040;2023-07-29T14:26:53;2.22;;;0.50;;
52530;SDS011;38441;52.894;6.040;2023-07-29T14:29:19;1.98;;;0.60;;
52530;SDS011;38441;52.894;6.040;2023-07-29T14:31:44;2.72;;;0.55;;
52530;SDS011;38441;52.894;6.040;2023-07-29T14:34:10;3.03;;;0.60;;
52530;SDS011;38441;52.894;6.040;2023-07-29T14:36:35;2.53;;;0.60;;
52530;SDS011;38441;52.894;6.040;2023-07-29T14:39:01;2.03;;;0.55;;
52530;SDS011;38441;52.894;6.040;2023-07-29T14:41:27;2.63;;;0.60;;
52530;SDS011;38441;52.894;6.040;2023-07-29T14:43:53;2.15;;;0.70;;
52530;SDS011;38441;52.894;6.040;2023-07-29T14:48:54;2.08;;;0.80;;
52530;SDS011;38441;52.894;6.040;2023-07-29T14:51:19;2.58;;;0.63;;
52530;SDS011;38441;52.894;6.040;2023-07-29T14:53:45;3.70;;;0.80;;
52530;SDS011;38441;52.894;6.040;2023-07-29T14:56:11;1.92;;;0.65;;
52530;SDS011;38441;52.894;6.040;2023-07-29T14:58:38;3.58;;;0.50;;
52530;SDS011;38441;52.894;6.040;2023-07-29T15:01:04;2.60;;;0.60;;
52530;SDS011;38441;52.894;6.040;2023-07-29T15:03:29;3.53;;;0.60;;
52530;SDS011;38441;52.894;6.040;2023-07-29T15:05:55;1.83;;;0.50;;
52530;SDS011;38441;52.894;6.040;2023-07-29T15:08:21;2.03;;;0.43;;
52530;SDS011;38441;52.894;6.040;2023-07-29T15:10:47;1.15;;;0.43;;
52530;SDS011;38441;52.894;6.040;2023-07-29T15:13:13;2.83;;;1.15;;
52530;SDS011;38441;52.894;6.040;2023-07-29T15:15:43;2.20;;;0.52;;
52530;SDS011;38441;52.894;6.040;2023-07-29T15:18:09;1.95;;;0.52;;
52530;SDS011;38441;52.894;6.040;2023-07-29T15:20:35;2.95;;;0.55;;
52530;SDS011;38441;52.894;6.040;2023-07-29T15:23:00;2.65;;;0.52;;
52530;SDS011;38441;52.894;6.040;2023-07-29T15:25:26;2.05;;;0.57;;
52530;SDS011;38441;52.894;6.040;2023-07-29T15:27:52;4.88;;;0.88;;
52530;SDS011;38441;52.894;6.040;2023-07-29T15:30:17;2.75;;;0.75;;
52530;SDS011;38441;52.894;6.040;2023-07-29T15:32:43;2.67;;;0.60;;
52530;SDS011;38441;52.894;6.040;2023-07-29T15:35:09;3.58;;;0.98;;
52530;SDS011;38441;52.894;6.040;2023-07-29T15:37:35;2.35;;;0.65;;
52530;SDS011;38441;52.894;6.040;2023-07-29T15:40:01;3.50;;;0.73;;
52530;SDS011;38441;52.894;6.040;2023-07-29T15:42:27;4.57;;;0.70;;
52530;SDS011;38441;52.894;6.040;2023-07-29T15:44:52;2.58;;;0.60;;
52530;SDS011;38441;52.894;6.040;2023-07-29T15:47:18;1.77;;;0.40;;
52530;SDS011;38441;52.894;6.040;2023-07-29T15:49:44;2.53;;;0.40;;
52530;SDS011;38441;52.894;6.040;2023-07-29T15:52:10;3.50;;;0.47;;
52530;SDS011;38441;52.894;6.040;2023-07-29T15:54:38;1.10;;;0.20;;
52530;SDS011;38441;52.894;6.040;2023-07-29T15:57:04;1.02;;;0.28;;
52530;SDS011;38441;52.894;6.040;2023-07-29T15:59:30;0.95;;;0.22;;
52530;SDS011;38441;52.894;6.040;2023-07-29T16:01:56;1.88;;;0.30;;
52530;SDS011;38441;52.894;6.040;2023-07-29T16:04:21;0.82;;;0.20;;
52530;SDS011;38441;52.894;6.040;2023-07-29T16:06:47;1.92;;;0.50;;
52530;SDS011;38441;52.894;6.040;2023-07-29T16:09:13;1.92;;;0.40;;
52530;SDS011;38441;52.894;6.040;2023-07-29T16:11:38;2.25;;;0.60;;
52530;SDS011;38441;52.894;6.040;2023-07-29T16:14:04;1.05;;;0.38;;
52530;SDS011;38441;52.894;6.040;2023-07-29T16:16:29;3.30;;;0.43;;
52530;SDS011;38441;52.894;6.040;2023-07-29T16:18:55;2.30;;;0.35;;
52530;SDS011;38441;52.894;6.040;2023-07-29T16:21:21;2.30;;;0.50;;
52530;SDS011;38441;52.894;6.040;2023-07-29T16:23:46;1.52;;;0.40;;
52530;SDS011;38441;52.894;6.040;2023-07-29T16:26:17;2.42;;;0.50;;
52530;SDS011;38441;52.894;6.040;2023-07-29T16:28:44;2.42;;;0.73;;
52530;SDS011;38441;52.894;6.040;2023-07-29T16:31:09;4.03;;;0.77;;
52530;SDS011;38441;52.894;6.040;2023-07-29T16:33:35;2.50;;;0.40;;
52530;SDS011;38441;52.894;6.040;2023-07-29T16:36:01;1.33;;;0.50;;
52530;SDS011;38441;52.894;6.040;2023-07-29T16:38:26;1.80;;;0.50;;
52530;SDS011;38441;52.894;6.040;2023-07-29T16:40:52;1.77;;;0.60;;
52530;SDS011;38441;52.894;6.040;2023-07-29T16:43:17;3.03;;;0.65;;
52530;SDS011;38441;52.894;6.040;2023-07-29T16:45:43;1.88;;;0.50;;
52530;SDS011;38441;52.894;6.040;2023-07-29T16:48:08;1.67;;;0.55;;
52530;SDS011;38441;52.894;6.040;2023-07-29T16:50:34;3.88;;;0.73;;
52530;SDS011;38441;52.894;6.040;2023-07-29T16:53:00;2.88;;;0.50;;
52530;SDS011;38441;52.894;6.040;2023-07-29T16:55:25;3.72;;;0.40;;
52530;SDS011;38441;52.894;6.040;2023-07-29T16:57:51;2.17;;;0.70;;
52530;SDS011;38441;52.894;6.040;2023-07-29T17:00:18;1.17;;;0.38;;
52530;SDS011;38441;52.894;6.040;2023-07-29T17:02:43;1.83;;;0.60;;
52530;SDS011;38441;52.894;6.040;2023-07-29T17:05:09;3.35;;;1.10;;
52530;SDS011;38441;52.894;6.040;2023-07-29T17:07:34;1.90;;;0.50;;
52530;SDS011;38441;52.894;6.040;2023-07-29T17:10:00;3.17;;;0.80;;
52530;SDS011;38441;52.894;6.040;2023-07-29T17:12:26;2.05;;;0.75;;
52530;SDS011;38441;52.894;6.040;2023-07-29T17:14:52;2.00;;;0.65;;
52530;SDS011;38441;52.894;6.040;2023-07-29T17:17:17;2.13;;;0.85;;
52530;SDS011;38441;52.894;6.040;2023-07-29T17:19:43;2.90;;;0.88;;
52530;SDS011;38441;52.894;6.040;2023-07-29T17:22:09;2.35;;;0.80;;
52530;SDS011;38441;52.894;6.040;2023-07-29T17:24:35;2.35;;;0.80;;
52530;SDS011;38441;52.894;6.040;2023-07-29T17:27:01;2.58;;;0.80;;
52530;SDS011;38441;52.894;6.040;2023-07-29T17:29:27;4.03;;;1.02;;
52530;SDS011;38441;52.894;6.040;2023-07-29T17:31:52;2.50;;;0.77;;
52530;SDS011;38441;52.894;6.040;2023-07-29T17:34:18;2.95;;;1.02;;
52530;SDS011;38441;52.894;6.040;2023-07-29T17:36:45;2.15;;;1.00;;
52530;SDS011;38441;52.894;6.040;2023-07-29T17:39:11;2.70;;;1.10;;
52530;SDS011;38441;52.894;6.040;2023-07-29T17:41:37;3.33;;;1.20;;
52530;SDS011;38441;52.894;6.040;2023-07-29T17:44:02;3.80;;;1.30;;
52530;SDS011;38441;52.894;6.040;2023-07-29T17:46:28;3.47;;;1.27;;
52530;SDS011;38441;52.894;6.040;2023-07-29T17:48:53;2.75;;;1.10;;
52530;SDS011;38441;52.894;6.040;2023-07-29T17:51:19;3.78;;;1.15;;
52530;SDS011;38441;52.894;6.040;2023-07-29T17:53:45;3.25;;;1.05;;
52530;SDS011;38441;52.894;6.040;2023-07-29T17:56:10;4.10;;;1.15;;
52530;SDS011;38441;52.894;6.040;2023-07-29T17:58:36;2.42;;;1.02;;
52530;SDS011;38441;52.894;6.040;2023-07-29T18:01:02;3.35;;;1.25;;
52530;SDS011;38441;52.894;6.040;2023-07-29T18:03:28;4.05;;;1.08;;
52530;SDS011;38441;52.894;6.040;2023-07-29T18:05:54;3.80;;;1.10;;
52530;SDS011;38441;52.894;6.040;2023-07-29T18:08:20;2.15;;;0.98;;
52530;SDS011;38441;52.894;6.040;2023-07-29T18:10:45;3.50;;;1.45;;
52530;SDS011;38441;52.894;6.040;2023-07-29T18:13:11;2.78;;;1.08;;
52530;SDS011;38441;52.894;6.040;2023-07-29T18:15:36;4.75;;;1.40;;
52530;SDS011;38441;52.894;6.040;2023-07-29T18:18:02;5.88;;;1.45;;
52530;SDS011;38441;52.894;6.040;2023-07-29T18:20:28;6.32;;;1.40;;
52530;SDS011;38441;52.894;6.040;2023-07-29T18:22:54;3.42;;;1.20;;
52530;SDS011;38441;52.894;6.040;2023-07-29T18:25:25;2.92;;;1.33;;
52530;SDS011;38441;52.894;6.040;2023-07-29T18:27:51;3.80;;;1.33;;
52530;SDS011;38441;52.894;6.040;2023-07-29T18:30:17;3.25;;;1.20;;
52530;SDS011;38441;52.894;6.040;2023-07-29T18:32:43;2.22;;;0.90;;
52530;SDS011;38441;52.894;6.040;2023-07-29T18:35:11;5.07;;;1.63;;
52530;SDS011;38441;52.894;6.040;2023-07-29T18:37:46;5.43;;;1.50;;
52530;SDS011;38441;52.894;6.040;2023-07-29T18:40:13;4.22;;;1.33;;
52530;SDS011;38441;52.894;6.040;2023-07-29T18:42:39;3.85;;;1.40;;
52530;SDS011;38441;52.894;6.040;2023-07-29T18:45:05;4.30;;;1.17;;
52530;SDS011;38441;52.894;6.040;2023-07-29T18:47:31;4.80;;;1.30;;
52530;SDS011;38441;52.894;6.040;2023-07-29T18:49:59;5.10;;;1.25;;
52530;SDS011;38441;52.894;6.040;2023-07-29T18:52:25;5.10;;;1.60;;
52530;SDS011;38441;52.894;6.040;2023-07-29T18:54:50;3.60;;;1.67;;
52530;SDS011;38441;52.894;6.040;2023-07-29T18:57:16;4.82;;;1.52;;
52530;SDS011;38441;52.894;6.040;2023-07-29T18:59:42;7.47;;;1.98;;
52530;SDS011;38441;52.894;6.040;2023-07-29T19:02:08;3.90;;;1.52;;
52530;SDS011;38441;52.894;6.040;2023-07-29T19:04:34;3.42;;;1.50;;
52530;SDS011;38441;52.894;6.040;2023-07-29T19:07:00;5.05;;;1.65;;
52530;SDS011;38441;52.894;6.040;2023-07-29T19:09:25;5.55;;;1.38;;
52530;SDS011;38441;52.894;6.040;2023-07-29T19:11:52;5.00;;;1.65;;
52530;SDS011;38441;52.894;6.040;2023-07-29T19:14:17;5.38;;;1.48;;
52530;SDS011;38441;52.894;6.040;2023-07-29T19:16:43;10.30;;;2.20;;
52530;SDS011;38441;52.894;6.040;2023-07-29T19:19:08;5.97;;;1.98;;
52530;SDS011;38441;52.894;6.040;2023-07-29T19:21:34;3.70;;;1.35;;
52530;SDS011;38441;52.894;6.040;2023-07-29T19:24:02;5.07;;;1.48;;
52530;SDS011;38441;52.894;6.040;2023-07-29T19:26:28;4.40;;;1.60;;
52530;SDS011;38441;52.894;6.040;2023-07-29T19:28:54;4.53;;;1.30;;
52530;SDS011;38441;52.894;6.040;2023-07-29T19:31:19;4.53;;;1.40;;
52530;SDS011;38441;52.894;6.040;2023-07-29T19:33:45;4.97;;;1.55;;
52530;SDS011;38441;52.894;6.040;2023-07-29T19:36:11;6.60;;;1.80;;
52530;SDS011;38441;52.894;6.040;2023-07-29T19:38:37;3.55;;;1.40;;
52530;SDS011;38441;52.894;6.040;2023-07-29T19:41:03;5.78;;;1.75;;
52530;SDS011;38441;52.894;6.040;2023-07-29T19:43:29;3.75;;;1.30;;
52530;SDS011;38441;52.894;6.040;2023-07-29T19:45:56;3.85;;;1.50;;
52530;SDS011;38441;52.894;6.040;2023-07-29T19:48:22;5.50;;;1.77;;
52530;SDS011;38441;52.894;6.040;2023-07-29T19:50:47;5.30;;;1.83;;
52530;SDS011;38441;52.894;6.040;2023-07-29T19:53:13;8.13;;;1.73;;
52530;SDS011;38441;52.894;6.040;2023-07-29T19:55:39;5.05;;;1.52;;
52530;SDS011;38441;52.894;6.040;2023-07-29T19:58:04;6.55;;;1.80;;
52530;SDS011;38441;52.894;6.040;2023-07-29T20:00:30;5.47;;;1.92;;
52530;SDS011;38441;52.894;6.040;2023-07-29T20:02:58;5.80;;;1.50;;
52530;SDS011;38441;52.894;6.040;2023-07-29T20:05:26;9.45;;;1.88;;
52530;SDS011;38441;52.894;6.040;2023-07-29T20:07:53;6.75;;;1.85;;
52530;SDS011;38441;52.894;6.040;2023-07-29T20:10:18;5.00;;;1.70;;
52530;SDS011;38441;52.894;6.040;2023-07-29T20:12:45;5.72;;;1.77;;
52530;SDS011;38441;52.894;6.040;2023-07-29T20:15:11;9.40;;;1.90;;
52530;SDS011;38441;52.894;6.040;2023-07-29T20:17:36;6.53;;;1.65;;
52530;SDS011;38441;52.894;6.040;2023-07-29T20:20:02;6.88;;;1.90;;
52530;SDS011;38441;52.894;6.040;2023-07-29T20:22:28;5.50;;;2.10;;
52530;SDS011;38441;52.894;6.040;2023-07-29T20:27:35;5.75;;;2.08;;
52530;SDS011;38441;52.894;6.040;2023-07-29T20:30:08;10.32;;;2.67;;
52530;SDS011;38441;52.894;6.040;2023-07-29T20:32:34;10.13;;;2.30;;
52530;SDS011;38441;52.894;6.040;2023-07-29T20:35:01;7.05;;;1.75;;
52530;SDS011;38441;52.894;6.040;2023-07-29T20:37:27;9.13;;;2.25;;
52530;SDS011;38441;52.894;6.040;2023-07-29T20:39:53;6.95;;;2.30;;
52530;SDS011;38441;52.894;6.040;2023-07-29T20:42:18;10.50;;;2.22;;
52530;SDS011;38441;52.894;6.040;2023-07-29T20:44:44;9.27;;;1.90;;
52530;SDS011;38441;52.894;6.040;2023-07-29T20:47:09;6.05;;;2.00;;
52530;SDS011;38441;52.894;6.040;2023-07-29T20:49:35;9.20;;;2.22;;
52530;SDS011;38441;52.894;6.040;2023-07-29T20:52:01;8.30;;;1.98;;
52530;SDS011;38441;52.894;6.040;2023-07-29T20:54:27;9.02;;;1.90;;
52530;SDS011;38441;52.894;6.040;2023-07-29T20:56:53;7.40;;;2.85;;
52530;SDS011;38441;52.894;6.040;2023-07-29T20:59:19;7.85;;;2.30;;
52530;SDS011;38441;52.894;6.040;2023-07-29T21:01:44;8.30;;;2.38;;
52530;SDS011;38441;52.894;6.040;2023-07-29T21:04:10;7.88;;;2.45;;
52530;SDS011;38441;52.894;6.040;2023-07-29T21:06:36;10.85;;;2.55;;
52530;SDS011;38441;52.894;6.040;2023-07-29T21:09:03;9.10;;;2.67;;
52530;SDS011;38441;52.894;6.040;2023-07-29T21:11:29;11.48;;;2.97;;
52530;SDS011;38441;52.894;6.040;2023-07-29T21:13:55;10.13;;;3.20;;
52530;SDS011;38441;52.894;6.040;2023-07-29T21:19:17;10.52;;;2.67;;
52530;SDS011;38441;52.894;6.040;2023-07-29T21:21:43;10.25;;;2.75;;
52530;SDS011;38441;52.894;6.040;2023-07-29T21:24:10;9.68;;;2.72;;
52530;SDS011;38441;52.894;6.040;2023-07-29T21:26:36;9.48;;;2.75;;
52530;SDS011;38441;52.894;6.040;2023-07-29T21:29:02;12.73;;;3.33;;
52530;SDS011;38441;52.894;6.040;2023-07-29T21:31:28;9.45;;;2.95;;
52530;SDS011;38441;52.894;6.040;2023-07-29T21:33:53;15.18;;;3.13;;
52530;SDS011;38441;52.894;6.040;2023-07-29T21:36:19;9.43;;;3.22;;
52530;SDS011;38441;52.894;6.040;2023-07-29T21:38:44;10.30;;;2.75;;
52530;SDS011;38441;52.894;6.040;2023-07-29T21:41:10;14.27;;;3.13;;
52530;SDS011;38441;52.894;6.040;2023-07-29T21:43:36;12.27;;;3.35;;
52530;SDS011;38441;52.894;6.040;2023-07-29T21:46:02;13.73;;;3.28;;
52530;SDS011;38441;52.894;6.040;2023-07-29T21:48:30;10.82;;;2.83;;
52530;SDS011;38441;52.894;6.040;2023-07-29T21:50:55;13.25;;;2.97;;
52530;SDS011;38441;52.894;6.040;2023-07-29T21:53:21;11.73;;;3.13;;
52530;SDS011;38441;52.894;6.040;2023-07-29T21:55:47;10.05;;;3.38;;
52530;SDS011;38441;52.894;6.040;2023-07-29T21:58:12;13.18;;;3.50;;
52530;SDS011;38441;52.894;6.040;2023-07-29T22:00:38;9.35;;;3.33;;
52530;SDS011;38441;52.894;6.040;2023-07-29T22:03:04;12.32;;;3.42;;
52530;SDS011;38441;52.894;6.040;2023-07-29T22:05:30;12.20;;;3.47;;
52530;SDS011;38441;52.894;6.040;2023-07-29T22:07:56;9.30;;;3.38;;
52530;SDS011;38441;52.894;6.040;2023-07-29T22:10:21;9.20;;;2.72;;
52530;SDS011;38441;52.894;6.040;2023-07-29T22:12:47;8.65;;;3.10;;
52530;SDS011;38441;52.894;6.040;2023-07-29T22:15:12;10.00;;;3.13;;
52530;SDS011;38441;52.894;6.040;2023-07-29T22:17:38;6.60;;;2.70;;
52530;SDS011;38441;52.894;6.040;2023-07-29T22:20:04;11.80;;;3.22;;
52530;SDS011;38441;52.894;6.040;2023-07-29T22:22:30;9.38;;;2.85;;
52530;SDS011;38441;52.894;6.040;2023-07-29T22:24:56;8.65;;;3.00;;
52530;SDS011;38441;52.894;6.040;2023-07-29T22:27:21;10.13;;;2.80;;
52530;SDS011;38441;52.894;6.040;2023-07-29T22:29:47;9.15;;;3.40;;
52530;SDS011;38441;52.894;6.040;2023-07-29T22:32:13;14.68;;;3.15;;
52530;SDS011;38441;52.894;6.040;2023-07-29T22:34:39;10.65;;;3.25;;
52530;SDS011;38441;52.894;6.040;2023-07-29T22:37:04;8.55;;;3.13;;
52530;SDS011;38441;52.894;6.040;2023-07-29T22:39:31;15.63;;;3.80;;
52530;SDS011;38441;52.894;6.040;2023-07-29T22:41:57;11.80;;;3.50;;
52530;SDS011;38441;52.894;6.040;2023-07-29T22:44:22;13.02;;;4.20;;
52530;SDS011;38441;52.894;6.040;2023-07-29T22:46:48;11.45;;;3.58;;
52530;SDS011;38441;52.894;6.040;2023-07-29T22:49:14;14.73;;;4.20;;
52530;SDS011;38441;52.894;6.040;2023-07-29T22:51:39;11.82;;;3.97;;
52530;SDS011;38441;52.894;6.040;2023-07-29T22:54:05;10.70;;;3.42;;
52530;SDS011;38441;52.894;6.040;2023-07-29T22:56:30;12.70;;;3.30;;
52530;SDS011;38441;52.894;6.040;2023-07-29T22:58:56;9.10;;;3.33;;
52530;SDS011;38441;52.894;6.040;2023-07-29T23:01:24;17.33;;;4.28;;
52530;SDS011;38441;52.894;6.040;2023-07-29T23:03:49;7.72;;;3.10;;
52530;SDS011;38441;52.894;6.040;2023-07-29T23:06:15;14.15;;;3.67;;
52530;SDS011;38441;52.894;6.040;2023-07-29T23:08:41;15.25;;;3.78;;
52530;SDS011;38441;52.894;6.040;2023-07-29T23:11:06;11.77;;;3.60;;
52530;SDS011;38441;52.894;6.040;2023-07-29T23:13:32;10.02;;;3.50;;
52530;SDS011;38441;52.894;6.040;2023-07-29T23:16:01;10.88;;;3.13;;
52530;SDS011;38441;52.894;6.040;2023-07-29T23:18:27;7.85;;;2.80;;
52530;SDS011;38441;52.894;6.040;2023-07-29T23:20:53;8.73;;;2.95;;
52530;SDS011;38441;52.894;6.040;2023-07-29T23:23:19;10.57;;;3.22;;
52530;SDS011;38441;52.894;6.040;2023-07-29T23:25:45;9.18;;;3.20;;
52530;SDS011;38441;52.894;6.040;2023-07-29T23:28:11;7.72;;;2.83;;
52530;SDS011;38441;52.894;6.040;2023-07-29T23:30:36;12.52;;;3.53;;
52530;SDS011;38441;52.894;6.040;2023-07-29T23:33:03;12.80;;;3.58;;
52530;SDS011;38441;52.894;6.040;2023-07-29T23:35:29;9.20;;;3.30;;
52530;SDS011;38441;52.894;6.040;2023-07-29T23:37:55;11.38;;;3.45;;
52530;SDS011;38441;52.894;6.040;2023-07-29T23:40:21;11.48;;;3.50;;
52530;SDS011;38441;52.894;6.040;2023-07-29T23:42:47;11.07;;;3.72;;
52530;SDS011;38441;52.894;6.040;2023-07-29T23:45:13;8.25;;;2.95;;
52530;SDS011;38441;52.894;6.040;2023-07-29T23:47:39;10.57;;;3.47;;
52530;SDS011;38441;52.894;6.040;2023-07-29T23:50:04;6.40;;;2.78;;
52530;SDS011;38441;52.894;6.040;2023-07-29T23:52:31;15.23;;;3.65;;
52530;SDS011;38441;52.894;6.040;2023-07-29T23:54:57;8.88;;;2.83;;
52530;SDS011;38441;52.894;6.040;2023-07-29T23:57:23;11.35;;;3.28;;
52530;SDS011;38441;52.894;6.040;2023-07-29T23:59:48;10.60;;;3.10;;
